Disclaimer

Please do not use the information listed here in-flight or in-navigation, as they are not provided to us by the airports but are provided by volunteers, so they might be outdated.

Search


Regions


Airport information page

Radio informations:
RDO - 126.9 MHz
Ground (GND) - 121.9 MHz
Approach/Tower (APP/TWR) - 118.3 MHz

Airport informations:
Latitude: 13° 44' 41.51" S
Longitude: 076° 13' 13.02" W
Elevation: 39 feet - 12 meters
Operating hours: N/A
Operating agency: Military-civil joint use airport
Timezone: UTC-5
Fuel: 100/130 octane gasoline, leaded, MIL-L-5572F (GREEN)

Unknown fuel type or whether there is any fuel.

Runway information:
04/22 - 9908 x 148 feet< - >3020 x 45 meters

Recent METARs:
SPSO 202000Z 22017KT CAVOK 24/16 Q1012 RMK BIRD HAZARD RWY 22/04 PP000
SPSO 202100Z 22019KT CAVOK 22/16 Q1011 RMK BIRD HAZARD RWY 22/04 PP000
SPSO 202100Z 22019KT CAVOK 22/16 Q1011 RMK BIRD HAZARD RWY 22/04 PP000

Airport on the map: